Terminal Aerodrome Forecast
Issued by NWS

Home | Current Version | Previous Version | Graphics & Text | Print | Product List | Glossary On
Versions: 1 2 3 4 5 6 7 8 9 10 11 12 13 14 15 16 17 18 19 20 21 22
045
FTUS43 KBIS 272320
TAFJMS
TAF
KJMS 272320Z 2800/2824 10005KT P6SM FEW250
     FM280400 10005KT 3SM BR SCT150
     FM280600 09004KT 1/2SM FG BKN025
     FM281000 VRB03KT 1/4SM FG BKN010
     FM281300 06004KT 1/2SM FG SCT008
     FM281600 07009KT P6SM SCT050=

USA.gov is the U.S. government's official web portal to all federal, state and local government web resources and services.